createdAt,value
2022-09-30T01:15:54.972Z,1.30
2022-09-30T01:18:49.188Z,1.57
2022-09-30T01:21:50.365Z,1.30
2022-09-30T01:24:38.564Z,2.43
2022-09-30T01:27:24.677Z,1.40
2022-09-30T01:30:05.763Z,1.50
2022-09-30T01:32:41.578Z,1.87
2022-09-30T01:35:37.028Z,2.47
2022-09-30T01:38:31.431Z,2.77
2022-09-30T01:41:10.717Z,1.73
2022-09-30T01:43:37.434Z,1.77
2022-09-30T01:46:50.441Z,1.83
2022-09-30T01:49:27.304Z,2.43
2022-09-30T01:52:08.462Z,1.50
2022-09-30T01:54:53.858Z,1.87
2022-09-30T01:57:42.580Z,3.37
2022-09-30T02:00:11.842Z,1.90
2022-09-30T02:02:59.418Z,3.13
2022-09-30T02:05:36.637Z,2.47
2022-09-30T02:08:13.420Z,2.07
2022-09-30T02:10:49.479Z,1.50
2022-09-30T02:13:25.485Z,1.70
2022-09-30T02:15:57.112Z,2.43
2022-09-30T02:18:34.917Z,2.77
2022-09-30T02:21:04.922Z,1.73
2022-09-30T02:23:35.400Z,3.20
2022-09-30T02:26:10.388Z,1.53
2022-09-30T02:28:44.253Z,1.80
2022-09-30T02:31:15.247Z,1.80
2022-09-30T02:33:47.771Z,2.03
2022-09-30T02:36:33.723Z,2.10
2022-09-30T02:39:07.634Z,1.60
2022-09-30T02:41:52.420Z,1.70
2022-09-30T02:44:19.886Z,2.17
2022-09-30T02:47:13.919Z,5.07
2022-09-30T02:49:52.051Z,3.13
2022-09-30T02:52:27.787Z,1.93
2022-09-30T02:55:13.860Z,1.93
2022-09-30T02:58:04.860Z,2.27
2022-09-30T03:00:32.159Z,1.83
2022-09-30T03:03:20.095Z,1.93
2022-09-30T03:05:48.698Z,4.23
2022-09-30T03:08:16.278Z,3.47
2022-09-30T03:10:44.240Z,2.20
2022-09-30T03:13:30.486Z,2.63
2022-09-30T03:16:27.985Z,4.90
2022-09-30T03:19:24.040Z,2.73
2022-09-30T03:22:05.886Z,2.87
2022-09-30T03:24:47.667Z,2.53
2022-09-30T03:27:33.203Z,3.30
2022-09-30T03:30:18.501Z,3.40
2022-09-30T03:33:15.983Z,3.67
2022-09-30T03:36:07.837Z,5.50
2022-09-30T03:38:51.685Z,4.93
2022-09-30T03:41:30.811Z,4.50
2022-09-30T03:44:29.487Z,4.20
2022-09-30T03:47:07.765Z,3.83
2022-09-30T03:49:41.913Z,4.17
2022-09-30T03:52:12.490Z,3.37
2022-09-30T03:54:55.540Z,3.57
2022-09-30T03:57:22.619Z,2.70
2022-09-30T03:59:49.417Z,3.27
2022-09-30T04:02:16.360Z,3.53
2022-09-30T04:04:43.214Z,3.37
2022-09-30T04:07:10.570Z,2.80
2022-09-30T04:09:41.090Z,2.80
2022-09-30T04:12:08.532Z,3.80
2022-09-30T04:14:35.836Z,2.20
2022-09-30T04:17:06.436Z,2.20
2022-09-30T04:19:38.104Z,2.17
2022-09-30T04:22:04.935Z,2.40
2022-09-30T04:24:32.214Z,2.10
2022-09-30T04:26:59.142Z,3.23
2022-09-30T04:29:25.910Z,2.20
2022-09-30T04:31:52.801Z,2.23
2022-09-30T04:34:19.689Z,3.33
2022-09-30T04:36:46.594Z,2.13
2022-09-30T04:39:13.346Z,4.27
2022-09-30T04:41:40.827Z,4.33
2022-09-30T04:44:07.596Z,2.73
2022-09-30T04:46:36.844Z,2.47
2022-09-30T04:49:08.741Z,2.30
2022-09-30T04:51:36.528Z,2.60
2022-09-30T04:54:03.512Z,3.90
2022-09-30T04:56:30.382Z,9.43
2022-09-30T04:58:57.415Z,9.87
2022-09-30T05:01:24.358Z,11.13
2022-09-30T05:03:51.189Z,11.83
2022-09-30T05:06:18.283Z,12.37
2022-09-30T05:08:46.282Z,12.43
2022-09-30T05:11:21.118Z,9.77
2022-09-30T05:13:48.884Z,8.37
2022-09-30T05:16:17.197Z,9.60
2022-09-30T05:18:46.423Z,6.60
2022-09-30T05:21:15.528Z,4.80
2022-09-30T05:23:42.357Z,5.00
2022-09-30T05:26:12.207Z,5.03
2022-09-30T05:28:40.902Z,5.57
2022-09-30T05:31:08.185Z,4.33
2022-09-30T05:33:36.036Z,5.27
2022-09-30T05:36:06.887Z,7.03
2022-09-30T05:38:34.067Z,5.27
2022-09-30T05:41:11.411Z,5.00
2022-09-30T05:43:45.431Z,4.97
2022-09-30T05:46:12.658Z,5.93
2022-09-30T05:48:39.564Z,6.40
2022-09-30T05:51:07.572Z,5.90
2022-09-30T05:53:38.658Z,5.77
2022-09-30T05:56:06.958Z,5.87
2022-09-30T05:58:34.310Z,5.97
2022-09-30T06:01:13.406Z,5.03
2022-09-30T06:03:41.996Z,6.30
2022-09-30T06:06:08.843Z,4.83
2022-09-30T06:08:35.947Z,4.97
2022-09-30T06:11:11.982Z,5.03
2022-09-30T06:13:40.184Z,5.87
2022-09-30T06:16:08.202Z,5.73
2022-09-30T06:18:35.934Z,4.47
2022-09-30T06:21:05.005Z,6.13
2022-09-30T06:23:35.130Z,4.00
2022-09-30T06:26:04.033Z,4.10
2022-09-30T06:28:31.040Z,3.97
2022-09-30T06:30:57.792Z,3.70
2022-09-30T06:33:24.603Z,3.97
2022-09-30T06:35:51.402Z,4.10
2022-09-30T06:38:18.498Z,5.23
2022-09-30T06:40:49.730Z,4.00
2022-09-30T06:43:19.903Z,4.40
2022-09-30T06:45:48.225Z,3.53
2022-09-30T06:48:17.403Z,4.37
2022-09-30T06:50:59.443Z,3.67
2022-09-30T06:53:27.849Z,3.90
2022-09-30T06:55:58.298Z,5.93
2022-09-30T06:58:25.646Z,3.40
2022-09-30T07:01:06.477Z,4.40
2022-09-30T07:03:35.374Z,5.23
2022-09-30T07:06:05.032Z,4.30
2022-09-30T07:08:34.380Z,5.00
2022-09-30T07:11:16.941Z,6.77
2022-09-30T07:13:45.969Z,7.70
2022-09-30T07:16:18.441Z,5.77
2022-09-30T07:18:46.182Z,5.60
2022-09-30T07:21:16.205Z,5.33
2022-09-30T07:23:49.651Z,5.57
2022-09-30T07:26:18.783Z,5.40
2022-09-30T07:28:45.790Z,6.00
2022-09-30T07:31:32.387Z,5.53
2022-09-30T07:33:59.636Z,5.67
2022-09-30T07:36:32.730Z,5.63
2022-09-30T07:39:08.463Z,5.03
2022-09-30T07:41:37.861Z,5.17
2022-09-30T07:44:06.582Z,4.10
2022-09-30T07:46:35.490Z,8.00
2022-09-30T07:49:05.552Z,5.20
2022-09-30T07:51:35.671Z,6.10
2022-09-30T07:54:14.658Z,4.33
2022-09-30T07:57:10.285Z,5.30
2022-09-30T07:59:32.163Z,5.60
2022-09-30T08:01:59.373Z,4.27
2022-09-30T08:04:27.500Z,4.33
2022-09-30T08:07:00.281Z,3.63
2022-09-30T08:09:29.858Z,3.97
2022-09-30T08:11:57.340Z,5.27
2022-09-30T08:14:26.253Z,4.00
2022-09-30T08:16:54.138Z,3.83
2022-09-30T08:19:23.165Z,4.33
2022-09-30T08:21:51.373Z,4.07
2022-09-30T08:24:18.287Z,3.60
2022-09-30T08:26:45.208Z,3.73
2022-09-30T08:29:20.055Z,3.77
2022-09-30T08:31:52.804Z,3.50
2022-09-30T08:34:19.895Z,3.57
2022-09-30T08:36:46.799Z,3.53
2022-09-30T08:39:13.751Z,4.60
2022-09-30T08:41:59.763Z,4.13
2022-09-30T08:44:45.451Z,7.20
2022-09-30T08:47:36.906Z,10.23
2022-09-30T08:50:19.891Z,9.47
2022-09-30T08:52:55.158Z,10.23
2022-09-30T08:55:31.458Z,11.43
2022-09-30T08:57:58.540Z,9.70
2022-09-30T09:00:25.944Z,7.97
2022-09-30T09:02:56.960Z,9.23
2022-09-30T09:06:10.974Z,9.17
2022-09-30T09:08:49.211Z,9.03
2022-09-30T09:11:24.364Z,12.77
2022-09-30T09:14:06.036Z,9.60
2022-09-30T09:16:45.628Z,8.33
2022-09-30T09:19:28.738Z,14.10
2022-09-30T09:21:57.260Z,9.73
2022-09-30T09:24:26.562Z,8.30
2022-09-30T09:26:56.806Z,8.80
2022-09-30T09:29:39.041Z,8.87
2022-09-30T09:32:17.721Z,8.13
2022-09-30T09:34:46.927Z,11.17
2022-09-30T09:37:53.428Z,7.43
2022-09-30T09:40:45.795Z,9.47
2022-09-30T09:43:30.517Z,8.30
2022-09-30T09:46:30.840Z,9.77
2022-09-30T09:49:22.136Z,8.60
2022-09-30T09:52:13.403Z,9.97
2022-09-30T09:54:45.737Z,8.73
2022-09-30T09:57:15.828Z,10.07
2022-09-30T10:00:29.110Z,8.50
2022-09-30T10:03:04.425Z,11.30
2022-09-30T10:05:39.622Z,8.70
2022-09-30T10:08:20.114Z,8.40
2022-09-30T10:10:48.530Z,9.47
2022-09-30T10:13:18.040Z,9.37
2022-09-30T10:15:45.335Z,10.07
2022-09-30T10:18:25.861Z,9.60
2022-09-30T10:20:59.106Z,9.43
2022-09-30T10:23:32.357Z,8.50
2022-09-30T10:26:03.798Z,9.10
2022-09-30T10:28:34.906Z,9.93
2022-09-30T10:31:32.224Z,10.87
2022-09-30T10:34:14.218Z,10.17
2022-09-30T10:36:43.463Z,9.07
2022-09-30T10:39:26.838Z,9.93
2022-09-30T10:42:11.934Z,7.43
2022-09-30T10:44:53.145Z,7.90
2022-09-30T10:47:23.223Z,8.20
2022-09-30T10:49:58.463Z,7.63
2022-09-30T10:52:32.377Z,9.20
2022-09-30T10:55:00.883Z,6.97
2022-09-30T10:57:37.835Z,7.60
2022-09-30T11:00:13.817Z,6.97
2022-09-30T11:02:55.583Z,8.37
2022-09-30T11:05:29.872Z,8.63
2022-09-30T11:08:05.359Z,7.60
2022-09-30T11:10:42.869Z,7.63
2022-09-30T11:13:18.677Z,6.33
2022-09-30T11:16:09.780Z,6.47
2022-09-30T11:19:28.913Z,7.90
2022-09-30T11:22:17.030Z,9.73
2022-09-30T11:24:48.075Z,8.93
2022-09-30T11:27:28.487Z,8.97
2022-09-30T11:30:26.449Z,8.70
2022-09-30T11:33:30.744Z,10.60
2022-09-30T11:36:26.140Z,8.47
2022-09-30T11:39:32.180Z,7.87
2022-09-30T11:42:18.542Z,7.83
2022-09-30T11:44:49.005Z,7.90
2022-09-30T11:47:34.659Z,9.80
2022-09-30T11:50:27.845Z,6.70
2022-09-30T11:53:11.212Z,6.10
2022-09-30T11:55:57.715Z,7.00
2022-09-30T11:58:41.338Z,6.67
2022-09-30T12:01:36.998Z,6.83
2022-09-30T12:04:21.275Z,6.50
2022-09-30T12:06:58.544Z,7.77
2022-09-30T12:09:40.831Z,6.37
2022-09-30T12:12:16.731Z,5.83
2022-09-30T12:15:17.747Z,6.00
2022-09-30T12:18:13.403Z,7.23
2022-09-30T12:20:43.216Z,5.97
2022-09-30T12:23:17.741Z,6.03
2022-09-30T12:25:55.966Z,5.53
2022-09-30T12:28:54.024Z,7.50
2022-09-30T12:31:37.823Z,8.63
2022-09-30T12:34:37.052Z,7.97
2022-09-30T12:37:46.983Z,8.03
2022-09-30T12:40:35.351Z,8.30
2022-09-30T12:43:36.163Z,8.07
2022-09-30T12:46:32.517Z,7.33
2022-09-30T12:49:06.466Z,7.87
2022-09-30T12:51:35.139Z,7.33
2022-09-30T12:54:22.022Z,5.60
2022-09-30T12:56:56.031Z,6.50
2022-09-30T12:59:30.510Z,5.53
2022-09-30T13:01:58.497Z,6.67
2022-09-30T13:04:37.781Z,5.03
2022-09-30T13:07:06.749Z,5.17
2022-09-30T13:09:55.349Z,5.57
2022-09-30T13:12:40.595Z,5.07
2022-09-30T13:15:43.813Z,6.00
2022-09-30T13:18:26.653Z,3.73
2022-09-30T13:20:56.613Z,3.53
2022-09-30T13:23:46.845Z,3.93
2022-09-30T13:26:22.977Z,3.83
2022-09-30T13:28:51.295Z,4.03
2022-09-30T13:31:28.558Z,3.67
2022-09-30T13:34:01.507Z,3.60
2022-09-30T13:36:38.384Z,3.70
2022-09-30T13:39:26.558Z,3.83
2022-09-30T13:42:06.955Z,4.10
2022-09-30T13:45:01.800Z,4.00
2022-09-30T13:47:36.135Z,4.30
2022-09-30T13:50:26.973Z,3.60
2022-09-30T13:52:59.180Z,3.97
2022-09-30T13:55:27.774Z,3.77
2022-09-30T13:58:34.707Z,4.23
2022-09-30T14:01:34.866Z,4.13
2022-09-30T14:04:18.769Z,4.33
2022-09-30T14:07:20.919Z,3.47
2022-09-30T14:09:47.734Z,4.90
2022-09-30T14:12:37.406Z,3.77
2022-09-30T14:15:35.253Z,3.50
2022-09-30T14:18:11.159Z,4.30
2022-09-30T14:20:41.887Z,3.60
2022-09-30T14:23:16.955Z,3.43
2022-09-30T14:26:13.243Z,3.60
2022-09-30T14:28:47.541Z,3.50
2022-09-30T14:31:15.706Z,3.80
2022-09-30T14:33:47.164Z,4.40
2022-09-30T14:36:17.594Z,4.20
2022-09-30T14:38:47.310Z,6.67
2022-09-30T14:41:22.201Z,5.33
2022-09-30T14:43:54.436Z,4.80
2022-09-30T14:46:27.015Z,3.90
2022-09-30T14:48:56.617Z,3.73
2022-09-30T14:51:24.098Z,5.63
2022-09-30T14:54:02.509Z,4.40
2022-09-30T14:56:35.474Z,4.10
2022-09-30T14:59:24.824Z,4.27
2022-09-30T15:01:55.822Z,3.47
2022-09-30T15:04:33.823Z,4.33
2022-09-30T15:07:03.468Z,5.03
2022-09-30T15:09:37.558Z,3.50
2022-09-30T15:12:06.878Z,4.17
2022-09-30T15:14:33.837Z,4.23
2022-09-30T15:17:05.902Z,4.20
2022-09-30T15:19:34.956Z,5.13
2022-09-30T15:22:09.421Z,3.70
2022-09-30T15:24:37.494Z,4.67
2022-09-30T15:27:04.892Z,4.30
2022-09-30T15:29:31.682Z,3.23
2022-09-30T15:32:21.285Z,4.77
2022-09-30T15:34:48.623Z,3.20
2022-09-30T15:37:22.860Z,3.07
2022-09-30T15:40:09.282Z,3.90
2022-09-30T15:42:39.531Z,4.43
2022-09-30T15:45:35.810Z,6.37
2022-09-30T15:48:27.695Z,3.97
2022-09-30T15:50:57.211Z,4.30
2022-09-30T15:53:32.439Z,4.10
2022-09-30T15:56:19.482Z,3.40
2022-09-30T15:59:07.682Z,3.77
2022-09-30T16:01:44.000Z,3.70
2022-09-30T16:04:15.585Z,5.53
2022-09-30T16:07:07.723Z,4.67
2022-09-30T16:09:37.477Z,3.93
2022-09-30T16:12:19.159Z,4.43
2022-09-30T16:15:06.353Z,5.47
2022-09-30T16:17:35.191Z,4.70
2022-09-30T16:20:15.735Z,3.70
2022-09-30T16:22:45.161Z,4.23
2022-09-30T16:25:26.479Z,3.20
2022-09-30T16:28:01.120Z,2.97
2022-09-30T16:30:33.462Z,3.10
2022-09-30T16:33:04.964Z,3.00
2022-09-30T16:35:35.886Z,3.80
2022-09-30T16:38:06.126Z,3.63
2022-09-30T16:40:39.246Z,2.67
2022-09-30T16:43:09.247Z,3.67
2022-09-30T16:45:40.063Z,3.47
2022-09-30T16:48:15.222Z,3.43
2022-09-30T16:50:48.098Z,3.00
2022-09-30T16:53:21.890Z,3.80
2022-09-30T16:55:48.757Z,3.90
2022-09-30T16:58:15.843Z,3.70
2022-09-30T17:00:44.674Z,6.23
2022-09-30T17:03:16.519Z,3.60
2022-09-30T17:05:45.017Z,3.47
2022-09-30T17:08:14.045Z,5.53
2022-09-30T17:10:43.066Z,6.03
2022-09-30T17:13:10.097Z,3.53
2022-09-30T17:15:37.403Z,6.37
2022-09-30T17:18:07.349Z,4.23
2022-09-30T17:20:35.204Z,3.20
2022-09-30T17:23:06.974Z,4.13
2022-09-30T17:25:34.960Z,3.93
2022-09-30T17:28:01.902Z,3.50
2022-09-30T17:30:28.856Z,3.20
2022-09-30T17:32:55.586Z,4.23
2022-09-30T17:35:22.594Z,3.23
2022-09-30T17:37:49.743Z,3.63
2022-09-30T17:40:35.388Z,4.13
2022-09-30T17:43:07.976Z,5.83
2022-09-30T17:45:35.652Z,9.17
2022-09-30T17:48:02.845Z,6.30
2022-09-30T17:50:33.944Z,8.83
2022-09-30T17:53:02.460Z,8.57
2022-09-30T17:55:35.446Z,9.10
2022-09-30T17:58:05.147Z,11.43
2022-09-30T18:00:32.205Z,10.53
2022-09-30T18:02:59.433Z,9.53
2022-09-30T18:05:27.217Z,10.30
2022-09-30T18:07:54.362Z,10.80
2022-09-30T18:10:21.447Z,11.10
2022-09-30T18:12:49.425Z,10.53
2022-09-30T18:15:16.962Z,11.47
2022-09-30T18:17:44.144Z,12.37
2022-09-30T18:20:11.425Z,11.50
2022-09-30T18:22:38.302Z,12.23
2022-09-30T18:25:20.818Z,10.93
2022-09-30T18:27:57.313Z,12.63
2022-09-30T18:30:25.126Z,14.57
2022-09-30T18:32:53.758Z,13.23
2022-09-30T18:35:24.357Z,11.53
2022-09-30T18:37:52.869Z,11.33
2022-09-30T18:40:25.954Z,13.17
2022-09-30T18:43:02.479Z,12.03
2022-09-30T18:45:31.903Z,12.50
2022-09-30T18:48:00.209Z,13.13
2022-09-30T18:50:29.924Z,11.60
2022-09-30T18:52:58.096Z,10.73
2022-09-30T18:55:25.070Z,9.93
2022-09-30T18:57:55.530Z,9.40
2022-09-30T19:00:25.779Z,10.90
2022-09-30T19:02:55.371Z,9.43
2022-09-30T19:08:03.105Z,9.77
2022-09-30T19:10:39.193Z,8.37
2022-09-30T19:13:09.234Z,10.63
2022-09-30T19:15:41.814Z,8.33
2022-09-30T19:18:11.749Z,8.07
2022-09-30T19:20:45.429Z,9.13
2022-09-30T19:23:12.378Z,8.23
2022-09-30T19:25:45.190Z,7.23
2022-09-30T19:28:12.472Z,7.00
2022-09-30T19:30:44.466Z,7.80
2022-09-30T19:33:11.525Z,6.00
2022-09-30T19:35:40.984Z,6.53
2022-09-30T19:38:08.498Z,5.87
2022-09-30T19:40:35.490Z,6.73
2022-09-30T19:43:02.412Z,8.50
2022-09-30T19:45:40.930Z,7.07
2022-09-30T19:48:12.233Z,6.33
2022-09-30T19:50:42.321Z,8.10
2022-09-30T19:53:09.870Z,6.77
2022-09-30T19:55:50.967Z,6.93
2022-09-30T19:58:20.202Z,7.20
2022-09-30T20:00:54.578Z,13.50
2022-09-30T20:03:22.503Z,11.20
2022-09-30T20:05:53.127Z,11.20
2022-09-30T20:08:22.582Z,8.00
2022-09-30T20:10:49.781Z,7.13
2022-09-30T20:13:16.656Z,6.83
2022-09-30T20:15:52.475Z,5.63
2022-09-30T20:18:20.549Z,5.47
2022-09-30T20:20:48.540Z,8.20
2022-09-30T20:23:17.731Z,5.43
2022-09-30T20:25:49.696Z,6.60
2022-09-30T20:28:25.519Z,5.20
